Terminal Aerodrome Forecast
Issued by NWS Central Illinois

Home | Current Version | Previous Version | Text Only | Print | Product List | Glossary On
Versions: 1 2 3 4 5 6 7 8 9 10
091
FTUS43 KILX 240523
TAFPIA
TAF
KPIA 240523Z 2406/2506 VRB03KT P6SM SCT250
     FM241500 14007KT P6SM SCT250=

USA.gov is the U.S. government's official web portal to all federal, state and local government web resources and services.